sensor_id;sensor_type;location;lat;lon;timestamp;temperature;humidity
6234;DHT22;3150;52.374;9.724;2022-09-12T00:59:46;14.00;99.90
6234;DHT22;3150;52.374;9.724;2022-09-12T01:44:36;13.70;99.90
6234;DHT22;3150;52.374;9.724;2022-09-12T01:47:35;13.60;99.90
6234;DHT22;3150;52.374;9.724;2022-09-12T01:50:31;13.50;99.90
6234;DHT22;3150;52.374;9.724;2022-09-12T01:53:28;13.60;99.90
6234;DHT22;3150;52.374;9.724;2022-09-12T01:56:24;13.50;99.90
6234;DHT22;3150;52.374;9.724;2022-09-12T02:03:03;13.70;99.90
6234;DHT22;3150;52.374;9.724;2022-09-12T02:06:08;13.60;99.90
6234;DHT22;3150;52.374;9.724;2022-09-12T02:09:08;13.50;99.90
6234;DHT22;3150;52.374;9.724;2022-09-12T02:12:01;13.50;99.90
6234;DHT22;3150;52.374;9.724;2022-09-12T02:14:56;13.40;99.90
6234;DHT22;3150;52.374;9.724;2022-09-12T02:20:47;13.40;99.90
6234;DHT22;3150;52.374;9.724;2022-09-12T02:23:42;13.30;99.90
6234;DHT22;3150;52.374;9.724;2022-09-12T02:26:35;13.30;99.90
6234;DHT22;3150;52.374;9.724;2022-09-12T02:29:33;13.20;99.90
6234;DHT22;3150;52.374;9.724;2022-09-12T02:32:49;12.60;99.90
6234;DHT22;3150;52.374;9.724;2022-09-12T02:35:51;13.30;99.90
6234;DHT22;3150;52.374;9.724;2022-09-12T02:38:46;13.50;99.90
6234;DHT22;3150;52.374;9.724;2022-09-12T02:41:44;13.20;99.90
6234;DHT22;3150;52.374;9.724;2022-09-12T02:44:35;12.50;99.90
6234;DHT22;3150;52.374;9.724;2022-09-12T02:47:33;13.20;99.90
6234;DHT22;3150;52.374;9.724;2022-09-12T02:50:27;13.20;99.90
6234;DHT22;3150;52.374;9.724;2022-09-12T02:53:22;13.20;99.90
6234;DHT22;3150;52.374;9.724;2022-09-12T02:56:17;13.30;99.90
6234;DHT22;3150;52.374;9.724;2022-09-12T02:59:10;13.20;99.90
6234;DHT22;3150;52.374;9.724;2022-09-12T03:02:14;13.10;99.90
6234;DHT22;3150;52.374;9.724;2022-09-12T03:05:24;13.00;99.90
6234;DHT22;3150;52.374;9.724;2022-09-12T03:08:34;13.00;99.90
6234;DHT22;3150;52.374;9.724;2022-09-12T03:11:40;12.90;99.90
6234;DHT22;3150;52.374;9.724;2022-09-12T03:14:49;12.90;99.90
6234;DHT22;3150;52.374;9.724;2022-09-12T03:17:50;12.80;99.90
6234;DHT22;3150;52.374;9.724;2022-09-12T03:20:51;12.80;99.90
6234;DHT22;3150;52.374;9.724;2022-09-12T03:23:57;12.70;99.90
6234;DHT22;3150;52.374;9.724;2022-09-12T03:26:53;12.70;99.90
6234;DHT22;3150;52.374;9.724;2022-09-12T03:29:46;12.60;99.90
6234;DHT22;3150;52.374;9.724;2022-09-12T03:32:40;12.60;99.90
6234;DHT22;3150;52.374;9.724;2022-09-12T03:35:30;12.10;99.90
6234;DHT22;3150;52.374;9.724;2022-09-12T03:38:22;13.90;99.90
6234;DHT22;3150;52.374;9.724;2022-09-12T03:41:16;12.60;99.90
6234;DHT22;3150;52.374;9.724;2022-09-12T03:44:07;12.60;99.90
6234;DHT22;3150;52.374;9.724;2022-09-12T03:46:57;12.60;99.90
6234;DHT22;3150;52.374;9.724;2022-09-12T03:49:48;12.60;99.90
6234;DHT22;3150;52.374;9.724;2022-09-12T03:52:39;13.00;99.90
6234;DHT22;3150;52.374;9.724;2022-09-12T03:55:29;12.60;99.90
6234;DHT22;3150;52.374;9.724;2022-09-12T03:58:23;12.60;99.90
6234;DHT22;3150;52.374;9.724;2022-09-12T04:01:14;12.50;99.90
6234;DHT22;3150;52.374;9.724;2022-09-12T04:04:05;13.70;99.90
6234;DHT22;3150;52.374;9.724;2022-09-12T04:06:55;12.60;99.90
6234;DHT22;3150;52.374;9.724;2022-09-12T04:09:46;12.30;99.90
6234;DHT22;3150;52.374;9.724;2022-09-12T04:12:36;12.60;99.90
6234;DHT22;3150;52.374;9.724;2022-09-12T04:15:30;12.60;99.90
6234;DHT22;3150;52.374;9.724;2022-09-12T04:18:20;13.10;99.90
6234;DHT22;3150;52.374;9.724;2022-09-12T04:21:13;12.50;99.90
6234;DHT22;3150;52.374;9.724;2022-09-12T04:24:04;14.00;99.90
6234;DHT22;3150;52.374;9.724;2022-09-12T04:26:55;12.50;99.90
6234;DHT22;3150;52.374;9.724;2022-09-12T04:32:51;12.50;99.90
6234;DHT22;3150;52.374;9.724;2022-09-12T04:35:42;12.50;99.90
6234;DHT22;3150;52.374;9.724;2022-09-12T04:38:36;12.50;99.90
6234;DHT22;3150;52.374;9.724;2022-09-12T04:41:28;12.30;99.90
6234;DHT22;3150;52.374;9.724;2022-09-12T04:44:19;12.50;99.90
6234;DHT22;3150;52.374;9.724;2022-09-12T04:47:09;12.50;99.90
6234;DHT22;3150;52.374;9.724;2022-09-12T04:50:11;12.40;99.90
6234;DHT22;3150;52.374;9.724;2022-09-12T04:56:01;12.50;99.90
6234;DHT22;3150;52.374;9.724;2022-09-12T04:58:55;12.50;99.90
6234;DHT22;3150;52.374;9.724;2022-09-12T05:01:54;13.40;99.90
6234;DHT22;3150;52.374;9.724;2022-09-12T05:04:45;12.50;99.90
6234;DHT22;3150;52.374;9.724;2022-09-12T05:07:54;12.60;99.90
6234;DHT22;3150;52.374;9.724;2022-09-12T05:11:05;12.60;99.90
6234;DHT22;3150;52.374;9.724;2022-09-12T05:13:56;12.50;99.90
6234;DHT22;3150;52.374;9.724;2022-09-12T05:16:48;12.90;99.90
6234;DHT22;3150;52.374;9.724;2022-09-12T05:19:39;12.80;99.90
6234;DHT22;3150;52.374;9.724;2022-09-12T05:22:30;13.00;99.90
6234;DHT22;3150;52.374;9.724;2022-09-12T05:25:25;13.00;99.90
6234;DHT22;3150;52.374;9.724;2022-09-12T05:28:15;13.10;99.90
6234;DHT22;3150;52.374;9.724;2022-09-12T05:31:20;13.30;99.90
6234;DHT22;3150;52.374;9.724;2022-09-12T05:37:03;13.30;99.90
6234;DHT22;3150;52.374;9.724;2022-09-12T05:40:11;13.80;99.90
6234;DHT22;3150;52.374;9.724;2022-09-12T05:46:25;13.60;99.90
6234;DHT22;3150;52.374;9.724;2022-09-12T05:49:31;13.70;99.90
6234;DHT22;3150;52.374;9.724;2022-09-12T05:52:48;14.20;99.90
6234;DHT22;3150;52.374;9.724;2022-09-12T05:56:06;14.50;99.90
6234;DHT22;3150;52.374;9.724;2022-09-12T06:02:03;16.20;99.90
6234;DHT22;3150;52.374;9.724;2022-09-12T06:13:35;18.90;99.90
6234;DHT22;3150;52.374;9.724;2022-09-12T06:16:28;17.50;99.90
6234;DHT22;3150;52.374;9.724;2022-09-12T06:19:48;20.20;99.90
6234;DHT22;3150;52.374;9.724;2022-09-12T06:22:39;20.90;99.90
6234;DHT22;3150;52.374;9.724;2022-09-12T06:25:31;22.70;99.90
6234;DHT22;3150;52.374;9.724;2022-09-12T06:28:39;22.60;99.90
6234;DHT22;3150;52.374;9.724;2022-09-12T06:31:32;22.90;99.90
6234;DHT22;3150;52.374;9.724;2022-09-12T06:34:30;22.70;99.90
6234;DHT22;3150;52.374;9.724;2022-09-12T06:38:04;22.60;99.90
6234;DHT22;3150;52.374;9.724;2022-09-12T06:41:05;23.00;99.90
6234;DHT22;3150;52.374;9.724;2022-09-12T06:53:19;24.20;95.70
6234;DHT22;3150;52.374;9.724;2022-09-12T06:56:20;24.40;94.70
6234;DHT22;3150;52.374;9.724;2022-09-12T06:59:15;24.90;89.60
6234;DHT22;3150;52.374;9.724;2022-09-12T07:02:07;25.10;85.70
6234;DHT22;3150;52.374;9.724;2022-09-12T07:04:59;25.40;81.90
6234;DHT22;3150;52.374;9.724;2022-09-12T07:07:50;25.90;78.20
6234;DHT22;3150;52.374;9.724;2022-09-12T07:10:49;25.90;78.80
6234;DHT22;3150;52.374;9.724;2022-09-12T07:22:50;27.20;67.10
6234;DHT22;3150;52.374;9.724;2022-09-12T07:26:00;27.30;66.60
6234;DHT22;3150;52.374;9.724;2022-09-12T07:34:55;27.30;65.80
6234;DHT22;3150;52.374;9.724;2022-09-12T07:37:50;26.60;69.80
6234;DHT22;3150;52.374;9.724;2022-09-12T07:44:17;26.90;68.80
6234;DHT22;3150;52.374;9.724;2022-09-12T07:50:11;28.40;63.30
6234;DHT22;3150;52.374;9.724;2022-09-12T07:59:24;28.70;61.30
6234;DHT22;3150;52.374;9.724;2022-09-12T08:05:40;29.30;59.10
6234;DHT22;3150;52.374;9.724;2022-09-12T08:08:33;29.60;57.80
6234;DHT22;3150;52.374;9.724;2022-09-12T08:11:27;29.80;56.50
6234;DHT22;3150;52.374;9.724;2022-09-12T08:20:32;29.40;57.90
6234;DHT22;3150;52.374;9.724;2022-09-12T08:23:24;29.30;57.90
6234;DHT22;3150;52.374;9.724;2022-09-12T08:29:10;29.50;57.60
6234;DHT22;3150;52.374;9.724;2022-09-12T08:32:10;29.00;58.50
6234;DHT22;3150;52.374;9.724;2022-09-12T08:35:01;29.00;58.50
6234;DHT22;3150;52.374;9.724;2022-09-12T08:37:55;28.80;58.90
6234;DHT22;3150;52.374;9.724;2022-09-12T08:41:06;29.00;58.40
6234;DHT22;3150;52.374;9.724;2022-09-12T08:47:19;28.60;59.00
6234;DHT22;3150;52.374;9.724;2022-09-12T08:59:34;29.10;57.40
6234;DHT22;3150;52.374;9.724;2022-09-12T09:05:23;29.70;56.00
6234;DHT22;3150;52.374;9.724;2022-09-12T09:11:36;28.60;58.70
6234;DHT22;3150;52.374;9.724;2022-09-12T09:53:39;25.80;67.80
6234;DHT22;3150;52.374;9.724;2022-09-12T10:53:10;24.30;65.30
6234;DHT22;3150;52.374;9.724;2022-09-12T11:05:48;24.40;64.60
6234;DHT22;3150;52.374;9.724;2022-09-12T12:24:13;24.10;68.90
6234;DHT22;3150;52.374;9.724;2022-09-12T12:54:53;24.40;78.70
6234;DHT22;3150;52.374;9.724;2022-09-12T13:04:19;24.40;79.30
6234;DHT22;3150;52.374;9.724;2022-09-12T13:10:37;24.80;81.70
6234;DHT22;3150;52.374;9.724;2022-09-12T13:13:37;24.40;79.20
6234;DHT22;3150;52.374;9.724;2022-09-12T13:19:45;24.60;80.70
6234;DHT22;3150;52.374;9.724;2022-09-12T13:31:49;24.30;76.20
6234;DHT22;3150;52.374;9.724;2022-09-12T13:35:04;24.40;76.20
6234;DHT22;3150;52.374;9.724;2022-09-12T13:41:18;24.00;80.50
6234;DHT22;3150;52.374;9.724;2022-09-12T13:44:20;23.80;78.90
6234;DHT22;3150;52.374;9.724;2022-09-12T13:51:26;23.90;78.60
6234;DHT22;3150;52.374;9.724;2022-09-12T13:54:43;24.40;73.50
6234;DHT22;3150;52.374;9.724;2022-09-12T13:58:04;24.50;76.10
6234;DHT22;3150;52.374;9.724;2022-09-12T14:01:09;24.20;74.20
6234;DHT22;3150;52.374;9.724;2022-09-12T14:09:55;24.00;74.10
6234;DHT22;3150;52.374;9.724;2022-09-12T14:13:09;24.00;73.50
6234;DHT22;3150;52.374;9.724;2022-09-12T14:53:02;23.50;77.00
6234;DHT22;3150;52.374;9.724;2022-09-12T15:02:21;23.50;74.40
6234;DHT22;3150;52.374;9.724;2022-09-12T15:05:22;23.40;73.50
6234;DHT22;3150;52.374;9.724;2022-09-12T15:11:27;23.30;74.80
6234;DHT22;3150;52.374;9.724;2022-09-12T15:17:18;23.30;76.00
6234;DHT22;3150;52.374;9.724;2022-09-12T15:47:50;22.80;78.60
6234;DHT22;3150;52.374;9.724;2022-09-12T15:53:36;22.70;76.80
6234;DHT22;3150;52.374;9.724;2022-09-12T15:56:33;22.60;79.60
6234;DHT22;3150;52.374;9.724;2022-09-12T16:08:45;22.40;83.10
6234;DHT22;3150;52.374;9.724;2022-09-12T16:17:22;22.40;86.10
6234;DHT22;3150;52.374;9.724;2022-09-12T16:20:22;23.50;88.80
6234;DHT22;3150;52.374;9.724;2022-09-12T16:29:14;22.30;85.70
6234;DHT22;3150;52.374;9.724;2022-09-12T16:38:21;22.20;90.20
6234;DHT22;3150;52.374;9.724;2022-09-12T16:51:06;21.90;94.40
6234;DHT22;3150;52.374;9.724;2022-09-12T17:36:52;20.60;99.90
6234;DHT22;3150;52.374;9.724;2022-09-12T17:39:49;20.00;99.90
6234;DHT22;3150;52.374;9.724;2022-09-12T19:27:22;16.40;99.90
6234;DHT22;3150;52.374;9.724;2022-09-12T19:48:51;18.20;99.90
6234;DHT22;3150;52.374;9.724;2022-09-12T20:09:13;17.80;99.90
6234;DHT22;3150;52.374;9.724;2022-09-12T20:12:24;15.90;99.90
6234;DHT22;3150;52.374;9.724;2022-09-12T20:18:23;17.70;99.90
6234;DHT22;3150;52.374;9.724;2022-09-12T21:28:09;17.00;99.90
6234;DHT22;3150;52.374;9.724;2022-09-12T21:34:02;17.00;99.90
6234;DHT22;3150;52.374;9.724;2022-09-12T21:36:57;19.60;99.90
6234;DHT22;3150;52.374;9.724;2022-09-12T21:45:35;16.90;99.90
6234;DHT22;3150;52.374;9.724;2022-09-12T21:48:26;15.30;99.90
6234;DHT22;3150;52.374;9.724;2022-09-12T21:51:34;16.50;99.90
6234;DHT22;3150;52.374;9.724;2022-09-12T21:54:25;16.70;99.90
6234;DHT22;3150;52.374;9.724;2022-09-12T21:57:16;16.70;99.90
6234;DHT22;3150;52.374;9.724;2022-09-12T22:00:10;16.70;99.90
6234;DHT22;3150;52.374;9.724;2022-09-12T22:03:04;16.70;99.90
6234;DHT22;3150;52.374;9.724;2022-09-12T22:06:00;16.60;99.90
6234;DHT22;3150;52.374;9.724;2022-09-12T22:08:51;16.60;99.90
6234;DHT22;3150;52.374;9.724;2022-09-12T22:11:42;16.40;99.90
6234;DHT22;3150;52.374;9.724;2022-09-12T22:14:42;16.60;99.90
6234;DHT22;3150;52.374;9.724;2022-09-12T22:17:33;16.80;99.90
6234;DHT22;3150;52.374;9.724;2022-09-12T22:20:27;16.50;99.90
6234;DHT22;3150;52.374;9.724;2022-09-12T22:23:19;17.30;99.90
6234;DHT22;3150;52.374;9.724;2022-09-12T22:26:23;16.50;99.90
6234;DHT22;3150;52.374;9.724;2022-09-12T22:29:16;16.40;99.90
6234;DHT22;3150;52.374;9.724;2022-09-12T22:32:08;16.40;99.90
6234;DHT22;3150;52.374;9.724;2022-09-12T22:37:54;16.40;99.90
6234;DHT22;3150;52.374;9.724;2022-09-12T22:40:47;16.40;99.90
6234;DHT22;3150;52.374;9.724;2022-09-12T22:46:16;16.40;99.90
6234;DHT22;3150;52.374;9.724;2022-09-12T22:49:10;16.40;99.90
6234;DHT22;3150;52.374;9.724;2022-09-12T22:52:01;16.30;99.90
6234;DHT22;3150;52.374;9.724;2022-09-12T22:54:58;16.30;99.90
6234;DHT22;3150;52.374;9.724;2022-09-12T23:00:45;16.20;99.90
6234;DHT22;3150;52.374;9.724;2022-09-12T23:03:37;16.20;99.90
6234;DHT22;3150;52.374;9.724;2022-09-12T23:06:29;16.30;99.90
6234;DHT22;3150;52.374;9.724;2022-09-12T23:09:20;16.30;99.90
6234;DHT22;3150;52.374;9.724;2022-09-12T23:12:15;17.20;99.90
6234;DHT22;3150;52.374;9.724;2022-09-12T23:15:07;16.30;99.90
6234;DHT22;3150;52.374;9.724;2022-09-12T23:17:57;16.60;99.90
6234;DHT22;3150;52.374;9.724;2022-09-12T23:20:58;16.30;99.90
6234;DHT22;3150;52.374;9.724;2022-09-12T23:23:49;16.30;99.90
6234;DHT22;3150;52.374;9.724;2022-09-12T23:26:44;16.30;99.90
6234;DHT22;3150;52.374;9.724;2022-09-12T23:29:38;16.30;99.90
6234;DHT22;3150;52.374;9.724;2022-09-12T23:32:29;16.30;99.90
6234;DHT22;3150;52.374;9.724;2022-09-12T23:35:19;16.30;99.90
6234;DHT22;3150;52.374;9.724;2022-09-12T23:38:14;16.30;99.90
6234;DHT22;3150;52.374;9.724;2022-09-12T23:41:05;16.30;99.90
6234;DHT22;3150;52.374;9.724;2022-09-12T23:43:56;16.30;99.90
6234;DHT22;3150;52.374;9.724;2022-09-12T23:46:54;16.60;99.90
6234;DHT22;3150;52.374;9.724;2022-09-12T23:49:46;16.30;99.90
6234;DHT22;3150;52.374;9.724;2022-09-12T23:52:36;16.30;99.90
6234;DHT22;3150;52.374;9.724;2022-09-12T23:55:27;16.20;99.90
